Time;durP1;ratioP1;P1;durP2;ratioP2;P2;SDS_P1;SDS_P2;PMS_P1;PMS_P2;Temp;Humidity;BMP_temperature;BMP_pressure;BME280_temperature;BME280_humidity;BME280_pressure;Samples;Min_cycle;Max_cycle;Signal;HPM_P1;HPM_P2
2022/11/03 00:00:08;;;;;;;;;3.00;1.00;;;;;14.63;66.63;101284.34;4976654;28;45292;-76
2022/11/03 00:02:33;;;;;;;;;8.00;2.50;;;;;14.61;66.24;101273.06;4976330;28;46897;-76
2022/11/03 00:06:03;;;;;;;;;1.50;1.50;;;;;14.61;66.52;101265.19;4976501;28;45313;-76
2022/11/03 00:07:44;;;;;;;;;1.25;1.25;;;;;14.57;66.61;101267.06;4976181;28;45508;-76
2022/11/03 00:10:09;;;;;;;;;3.25;2.00;;;;;14.55;66.42;101262.78;4976499;28;45405;-76
2022/11/03 00:12:34;;;;;;;;;2.25;2.00;;;;;14.53;66.74;101255.81;4975275;28;76406;-77
2022/11/03 00:15:00;;;;;;;;;2.25;1.00;;;;;14.52;67.05;101253.25;4974617;28;56816;-75
2022/11/03 00:17:25;;;;;;;;;3.00;2.00;;;;;14.54;66.40;101251.44;4975510;28;69129;-76
2022/11/03 00:19:50;;;;;;;;;5.25;2.00;;;;;14.51;66.98;101252.41;4975387;28;71573;-75
2022/11/03 00:22:15;;;;;;;;;3.00;2.25;;;;;14.48;67.30;101257.75;4957405;28;73901;-74
2022/11/03 00:24:41;;;;;;;;;2.25;2.25;;;;;14.49;66.85;101248.16;4975459;28;62949;-75
2022/11/03 00:27:06;;;;;;;;;3.50;2.75;;;;;14.48;67.35;101243.81;4975574;28;58732;-75
2022/11/03 00:29:31;;;;;;;;;3.50;2.00;;;;;14.46;67.64;101243.84;4975345;28;67134;-75
2022/11/03 00:31:57;;;;;;;;;3.50;2.00;;;;;14.45;67.08;101242.16;4976049;28;46960;-78
2022/11/03 00:34:22;;;;;;;;;1.75;1.75;;;;;14.45;67.01;101234.31;4975185;28;69198;-78
2022/11/03 00:36:47;;;;;;;;;3.00;1.75;;;;;14.48;67.47;101246.44;4974715;28;67438;-78
2022/11/03 00:39:13;;;;;;;;;1.50;1.50;;;;;14.46;67.16;101238.63;4975244;28;70382;-75
2022/11/03 00:41:38;;;;;;;;;5.00;2.00;;;;;14.48;66.92;101238.56;4975982;28;46247;-77
2022/11/03 00:44:04;;;;;;;;;5.75;1.75;;;;;14.44;66.99;101229.97;4976070;28;45343;-75
2022/11/03 00:46:33;;;;;;;;;8.25;2.00;;;;;14.44;67.19;101229.97;4978365;28;50599;-75
2022/11/03 00:48:59;;;;;;;;;3.00;2.00;;;;;14.41;67.21;101218.75;4978375;28;45459;-75
2022/11/03 00:51:26;;;;;;;;;7.00;2.50;;;;;14.40;66.96;101220.53;4979117;28;45331;-75
2022/11/03 00:53:52;;;;;;;;;4.00;2.00;;;;;14.37;67.09;101217.16;4978335;28;45477;-75
2022/11/03 00:56:22;;;;;;;;;7.50;3.75;;;;;14.35;66.96;101211.97;4994586;28;45466;-76
2022/11/03 00:58:49;;;;;;;;;4.50;3.50;;;;;14.33;67.48;101196.31;4961859;28;45417;-75
2022/11/03 01:01:20;;;;;;;;;4.50;2.00;;;;;14.27;67.64;101193.94;4977762;28;45942;-75
2022/11/03 01:06:52;;;;;;;;;4.00;3.75;;;;;14.23;67.60;101187.13;4979361;28;45278;-75
2022/11/03 01:09:22;;;;;;;;;3.00;2.75;;;;;14.19;67.52;101189.88;4978353;28;45333;-75
2022/11/03 01:12:07;;;;;;;;;2.00;2.00;;;;;14.19;67.81;101177.66;4979044;28;45658;-76
2022/11/03 01:14:40;;;;;;;;;3.00;2.00;;;;;14.12;67.55;101187.50;4961589;28;45412;-75
2022/11/03 01:17:07;;;;;;;;;9.25;4.00;;;;;14.09;67.51;101184.13;4979016;28;45352;-78
2022/11/03 01:19:32;;;;;;;;;3.75;2.00;;;;;14.09;67.67;101177.13;4978720;28;45411;-75
2022/11/03 01:21:58;;;;;;;;;1.00;1.00;;;;;14.08;68.41;101171.97;4978925;28;45436;-75
2022/11/03 01:24:23;;;;;;;;;5.00;2.50;;;;;14.06;68.18;101158.94;4978473;28;53504;-75
2022/11/03 01:26:49;;;;;;;;;9.00;3.00;;;;;14.06;68.15;101151.09;4977866;28;67925;-75
2022/11/03 01:29:14;;;;;;;;;6.50;3.75;;;;;14.12;68.15;101157.84;4978708;28;49525;-75
2022/11/03 01:31:39;;;;;;;;;3.25;2.00;;;;;14.10;68.09;101142.22;4977660;28;74681;-75
2022/11/03 01:34:04;;;;;;;;;2.50;2.00;;;;;14.09;68.32;101147.50;4960143;28;68860;-75
2022/11/03 01:36:30;;;;;;;;;3.25;1.75;;;;;14.07;68.14;101126.59;4977666;28;66709;-75
2022/11/03 01:38:55;;;;;;;;;3.25;2.00;;;;;14.08;67.98;101133.56;4977806;28;66167;-75
2022/11/03 01:41:26;;;;;;;;;5.00;4.00;;;;;14.08;68.15;101123.09;4974704;28;46460;-77
2022/11/03 01:44:07;;;;;;;;;7.25;3.00;;;;;14.06;68.18;101117.06;4977542;28;45465;-75
2022/11/03 01:46:41;;;;;;;;;3.00;2.25;;;;;14.04;68.21;101108.41;4978807;28;45353;-75
2022/11/03 01:49:17;;;;;;;;;1.50;1.00;;;;;13.99;68.44;101112.97;4977145;28;45475;-75
2022/11/03 01:51:45;;;;;;;;;2.25;2.25;;;;;13.96;69.17;101109.59;4977227;28;46430;-75
2022/11/03 01:54:14;;;;;;;;;3.00;2.00;;;;;13.98;68.43;101107.78;4978423;28;45712;-75
2022/11/03 01:56:42;;;;;;;;;4.75;2.00;;;;;13.97;68.57;101104.31;4973692;28;45429;-75
2022/11/03 01:59:08;;;;;;;;;4.75;2.00;;;;;13.96;68.65;101092.13;4977268;28;45440;-75
2022/11/03 02:01:33;;;;;;;;;4.00;3.00;;;;;13.93;68.61;101073.94;4976631;28;58290;-75
2022/11/03 02:04:04;;;;;;;;;3.00;2.00;;;;;13.90;68.86;101076.66;4977089;28;73034;-75
2022/11/03 02:06:30;;;;;;;;;2.25;2.25;;;;;13.89;68.86;101081.06;4978426;28;45389;-75
2022/11/03 02:09:05;;;;;;;;;3.25;1.75;;;;;13.87;69.01;101077.66;4976216;28;69448;-76
2022/11/03 02:14:16;;;;;;;;;3.50;3.00;;;;;13.83;68.83;101077.78;4978184;28;45847;-76
2022/11/03 02:16:48;;;;;;;;;5.00;3.00;;;;;13.81;68.43;101062.16;4976986;28;64263;-76
2022/11/03 02:19:32;;;;;;;;;3.00;2.00;;;;;13.82;69.65;101060.38;4976967;28;45421;-76
2022/11/03 02:22:28;;;;;;;;;3.75;3.25;;;;;13.80;68.95;101054.34;4976840;28;46396;-75
2022/11/03 02:25:13;;;;;;;;;3.50;2.25;;;;;13.76;68.89;101058.84;4977823;28;45763;-75
2022/11/03 02:27:39;;;;;;;;;2.25;2.25;;;;;13.74;69.18;101050.19;4977685;28;45389;-76
2022/11/03 02:30:05;;;;;;;;;7.50;4.00;;;;;13.77;68.97;101042.25;4976757;28;45386;-75
2022/11/03 02:32:45;;;;;;;;;4.25;2.25;;;;;13.74;69.28;101042.34;4977385;28;46520;-76
2022/11/03 02:35:18;;;;;;;;;6.00;2.50;;;;;13.75;69.20;101031.84;4977781;28;45412;-76
2022/11/03 02:37:47;;;;;;;;;2.00;2.00;;;;;13.78;69.04;101028.28;4976464;28;45467;-75
2022/11/03 02:40:16;;;;;;;;;4.75;3.00;;;;;13.75;68.96;101020.53;4976595;28;45360;-75
2022/11/03 02:42:46;;;;;;;;;6.00;4.00;;;;;13.72;69.04;101024.13;4960070;28;47307;-76
2022/11/03 02:45:13;;;;;;;;;4.50;3.00;;;;;13.72;68.98;101015.41;4960225;28;45741;-76
2022/11/03 02:47:39;;;;;;;;;2.75;2.00;;;;;13.69;69.41;101019.00;4960117;28;45448;-75
2022/11/03 02:50:09;;;;;;;;;3.75;2.75;;;;;13.68;69.00;101012.03;4959350;28;69528;-76
2022/11/03 02:52:41;;;;;;;;;4.25;2.00;;;;;13.68;69.43;101003.34;4977416;28;46063;-76
2022/11/03 02:55:32;;;;;;;;;2.00;2.00;;;;;13.65;69.73;101001.72;4977683;28;45708;-75
2022/11/03 02:57:58;;;;;;;;;3.50;3.25;;;;;13.67;69.33;100991.16;4960177;28;45352;-75
2022/11/03 03:00:23;;;;;;;;;3.33;2.00;;;;;13.66;69.59;100979.03;4976982;28;45459;-76
2022/11/03 03:02:54;;;;;;;;;5.25;3.75;;;;;13.65;69.71;100980.78;4976525;28;66788;-76
2022/11/03 03:05:22;;;;;;;;;9.25;3.25;;;;;13.68;69.85;100967.56;4976295;28;45732;-75
2022/11/03 03:07:52;;;;;;;;;2.25;2.25;;;;;13.67;69.61;100959.78;4976257;28;45417;-75
2022/11/03 03:10:21;;;;;;;;;3.00;2.00;;;;;13.69;69.36;100950.13;4976183;28;45431;-75
2022/11/03 03:12:50;;;;;;;;;3.00;2.00;;;;;13.66;69.99;100942.41;4975892;28;47464;-75
2022/11/03 03:15:16;;;;;;;;;5.50;3.00;;;;;13.65;69.23;100930.22;4975787;28;45435;-76
2022/11/03 03:17:57;;;;;;;;;3.25;3.00;;;;;13.65;69.57;100918.00;4977343;28;45305;-75
2022/11/03 03:20:27;;;;;;;;;5.00;2.50;;;;;13.62;69.95;100922.50;4959748;28;45397;-76
2022/11/03 03:22:55;;;;;;;;;3.00;2.50;;;;;13.63;69.67;100922.47;4977036;28;46463;-75
2022/11/03 03:25:45;;;;;;;;;2.00;2.00;;;;;13.62;69.88;100918.13;4975917;28;45325;-76
2022/11/03 03:28:16;;;;;;;;;3.00;2.00;;;;;13.60;69.64;100912.09;4959577;28;45298;-75
2022/11/03 03:30:42;;;;;;;;;2.00;2.00;;;;;13.62;69.23;100910.28;4975503;28;45404;-76
2022/11/03 03:33:08;;;;;;;;;3.00;2.00;;;;;13.62;69.38;100901.59;4974779;28;74151;-75
2022/11/03 03:35:37;;;;;;;;;1.50;1.25;;;;;13.58;70.12;100893.00;4975104;28;57773;-75
2022/11/03 03:38:05;;;;;;;;;4.75;3.00;;;;;13.58;69.79;100892.13;4975702;28;45624;-75
2022/11/03 03:40:36;;;;;;;;;4.25;3.00;;;;;13.57;69.49;100886.06;4966222;28;45741;-76
2022/11/03 03:43:03;;;;;;;;;4.00;3.00;;;;;13.57;69.85;100886.06;4975636;28;46423;-76
2022/11/03 03:45:30;;;;;;;;;7.00;3.00;;;;;13.55;69.83;100888.72;4975367;28;45293;-75
2022/11/03 03:47:56;;;;;;;;;4.00;2.25;;;;;13.52;69.87;100888.88;4975769;28;45500;-76
2022/11/03 03:50:23;;;;;;;;;4.25;2.50;;;;;13.49;69.65;100885.50;4975667;28;45360;-75
2022/11/03 03:52:48;;;;;;;;;4.00;2.00;;;;;13.50;70.04;100876.75;4975388;28;46447;-76
2022/11/03 03:55:17;;;;;;;;;2.75;2.00;;;;;13.52;70.12;100886.25;4976827;28;45479;-75
2022/11/03 03:57:43;;;;;;;;;2.00;2.00;;;;;13.52;70.07;100888.00;4964111;28;45332;-76
2022/11/03 04:00:12;;;;;;;;;4.00;2.00;;;;;13.51;69.76;100883.69;4958116;28;64718;-75
2022/11/03 04:02:37;;;;;;;;;3.25;2.75;;;;;13.50;69.83;100895.94;4976569;28;47203;-75
2022/11/03 04:05:03;;;;;;;;;4.00;3.00;;;;;13.50;69.93;100890.69;4976033;28;58479;-76
2022/11/03 04:07:46;;;;;;;;;4.75;2.25;;;;;13.53;69.83;100874.00;4976535;28;45372;-76
2022/11/03 04:10:11;;;;;;;;;6.00;3.00;;;;;13.55;69.66;100873.03;4976370;28;45658;-75
2022/11/03 04:23:35;;;;;;;;;3.00;1.75;;;;;13.49;69.83;100859.38;4976365;28;45865;-75
2022/11/03 04:26:01;;;;;;;;;4.25;1.50;;;;;13.48;69.55;100848.06;4975606;28;65789;-75
2022/11/03 04:28:26;;;;;;;;;2.50;2.00;;;;;13.49;69.58;100843.69;4957525;28;69216;-76
2022/11/03 04:30:55;;;;;;;;;5.75;2.00;;;;;13.48;69.66;100850.69;4958840;28;45410;-76
2022/11/03 04:33:20;;;;;;;;;4.00;2.00;;;;;13.48;70.15;100834.13;4975135;28;45279;-76
2022/11/03 04:35:46;;;;;;;;;5.25;2.50;;;;;13.44;69.92;100822.06;4975213;28;66174;-76
2022/11/03 04:38:12;;;;;;;;;3.00;2.00;;;;;13.45;69.66;100824.63;4974921;28;45269;-76
2022/11/03 04:40:39;;;;;;;;;3.33;1.33;;;;;13.48;69.84;100823.66;4976157;28;45229;-75
2022/11/03 04:43:10;;;;;;;;;3.00;2.00;;;;;13.48;69.98;100828.88;4974487;28;45237;-75
2022/11/03 04:45:37;;;;;;;;;4.25;2.25;;;;;13.45;69.71;100823.78;4974954;28;45459;-75
2022/11/03 04:48:18;;;;;;;;;2.25;2.00;;;;;13.46;69.64;100810.63;4976136;28;45283;-75
2022/11/03 04:50:46;;;;;;;;;2.00;2.00;;;;;13.48;69.45;100803.59;4976062;28;45439;-75
2022/11/03 04:53:13;;;;;;;;;5.25;3.00;;;;;13.50;69.17;100798.28;4975969;28;45250;-76
2022/11/03 04:55:39;;;;;;;;;4.25;2.00;;;;;13.48;69.51;100790.53;4976033;28;45581;-76
2022/11/03 04:58:26;;;;;;;;;4.00;2.25;;;;;13.46;69.30;100789.72;4975475;28;45413;-76
2022/11/03 05:00:53;;;;;;;;;5.00;3.00;;;;;13.46;69.35;100787.09;4974602;28;45412;-76
2022/11/03 05:03:23;;;;;;;;;2.50;2.00;;;;;13.44;69.13;100781.09;4974655;28;46399;-75
2022/11/03 05:05:48;;;;;;;;;3.50;2.00;;;;;13.45;69.10;100784.56;4958356;28;45638;-76
2022/11/03 05:08:16;;;;;;;;;3.00;3.00;;;;;13.44;68.91;100770.63;4973728;28;69189;-75
2022/11/03 05:10:42;;;;;;;;;3.00;3.00;;;;;13.45;69.34;100758.44;4975488;28;45455;-75
2022/11/03 05:13:26;;;;;;;;;3.50;3.00;;;;;13.42;69.25;100762.00;4973363;28;73342;-75
2022/11/03 05:15:56;;;;;;;;;7.00;3.25;;;;;13.41;69.22;100760.31;4975890;28;45676;-75
2022/11/03 05:18:29;;;;;;;;;3.50;3.00;;;;;13.45;69.14;100766.28;4974437;28;45384;-76
2022/11/03 05:21:00;;;;;;;;;2.00;2.00;;;;;13.44;69.24;100748.88;4958191;28;45495;-76
2022/11/03 05:23:26;;;;;;;;;3.25;3.00;;;;;13.43;69.24;100734.94;4974333;28;45425;-75
2022/11/03 05:25:53;;;;;;;;;2.75;2.75;;;;;13.40;68.93;100731.59;4975137;28;45728;-76
2022/11/03 05:28:20;;;;;;;;;2.50;2.00;;;;;13.39;68.92;100729.91;4974503;28;45456;-75
2022/11/03 05:30:50;;;;;;;;;3.00;2.00;;;;;13.36;68.77;100717.81;4975428;28;45399;-75
2022/11/03 05:33:26;;;;;;;;;5.50;3.25;;;;;13.35;68.64;100709.13;4977672;28;45984;-75
2022/11/03 05:35:51;;;;;;;;;3.00;3.00;;;;;13.32;69.08;100706.63;4978618;28;45385;-75
2022/11/03 05:38:19;;;;;;;;;5.00;1.75;;;;;13.31;69.18;100701.44;4978718;28;45405;-75
2022/11/03 05:40:44;;;;;;;;;7.25;3.00;;;;;13.28;68.71;100689.34;4969529;28;45440;-76
2022/11/03 05:43:12;;;;;;;;;2.00;2.00;;;;;13.29;69.10;100687.56;4977723;28;74904;-76
2022/11/03 05:45:38;;;;;;;;;7.50;2.00;;;;;13.29;68.87;100690.19;4977431;28;45397;-76
2022/11/03 05:48:18;;;;;;;;;3.25;3.00;;;;;13.29;68.99;100664.03;4977644;28;67514;-76
2022/11/03 05:50:43;;;;;;;;;3.25;3.00;;;;;13.28;68.95;100654.47;4978698;28;45340;-76
2022/11/03 05:53:26;;;;;;;;;1.50;0.50;;;;;13.25;68.93;100654.63;4978531;28;45414;-76
2022/11/03 05:55:52;;;;;;;;;3.25;2.00;;;;;13.24;69.26;100640.72;4978278;28;45800;-75
2022/11/03 05:58:24;;;;;;;;;2.50;2.00;;;;;13.26;68.84;100651.97;4978375;28;45431;-76
2022/11/03 06:00:49;;;;;;;;;3.00;3.00;;;;;13.28;69.16;100655.34;4978388;28;45383;-76
2022/11/03 06:03:20;;;;;;;;;3.00;2.00;;;;;13.29;68.71;100650.97;4977276;28;74792;-75
2022/11/03 06:05:46;;;;;;;;;6.75;6.75;;;;;13.28;68.58;100642.28;4978399;28;45273;-76
2022/11/03 06:08:18;;;;;;;;;6.00;3.00;;;;;13.26;68.83;100644.13;4977935;28;52509;-76
2022/11/03 06:10:47;;;;;;;;;3.50;3.50;;;;;13.26;68.97;100640.63;4978009;28;45664;-76
2022/11/03 06:13:19;;;;;;;;;6.75;3.00;;;;;13.24;69.04;100638.09;4978057;28;46497;-75
2022/11/03 06:15:46;;;;;;;;;8.25;2.75;;;;;13.23;68.97;100627.72;4978172;28;45361;-75
2022/11/03 06:18:18;;;;;;;;;3.00;3.00;;;;;13.26;68.82;100625.81;4976869;28;45362;-76
2022/11/03 06:20:50;;;;;;;;;2.00;2.00;;;;;13.27;68.97;100626.66;4977008;28;45432;-76
2022/11/03 06:23:16;;;;;;;;;5.50;2.00;;;;;13.24;69.39;100614.59;4976587;28;45696;-76
2022/11/03 06:25:42;;;;;;;;;4.75;3.50;;;;;13.22;69.30;100605.94;4975770;28;71941;-75
2022/11/03 06:28:13;;;;;;;;;5.75;2.25;;;;;13.25;68.88;100603.19;4978004;28;45405;-75
2022/11/03 06:30:41;;;;;;;;;4.00;2.00;;;;;13.22;68.84;100597.25;4976873;28;45310;-76
2022/11/03 06:33:20;;;;;;;;;3.50;2.75;;;;;13.18;69.01;100580.84;4960604;28;45569;-76
2022/11/03 06:35:47;;;;;;;;;3.00;3.00;;;;;13.17;69.27;100587.84;4977801;28;45640;-76
2022/11/03 06:38:19;;;;;;;;;3.75;3.25;;;;;13.18;69.61;100586.91;4976246;28;45330;-76
2022/11/03 06:40:45;;;;;;;;;4.50;2.00;;;;;13.15;69.61;100574.00;4977714;28;45375;-75
2022/11/03 06:43:27;;;;;;;;;5.00;3.00;;;;;13.16;69.32;100574.84;4976177;28;46915;-76
2022/11/03 06:46:11;;;;;;;;;5.50;2.00;;;;;13.14;69.17;100561.81;4976627;28;45712;-75
2022/11/03 06:48:37;;;;;;;;;3.25;3.25;;;;;13.18;69.24;100570.38;4976621;28;45402;-75
2022/11/03 06:51:14;;;;;;;;;3.00;2.75;;;;;13.22;69.28;100586.78;4976830;28;65947;-75
2022/11/03 06:53:40;;;;;;;;;2.75;2.00;;;;;13.19;69.14;100569.50;4976043;28;45507;-76
2022/11/03 06:56:09;;;;;;;;;4.00;3.00;;;;;13.24;68.95;100564.03;4976590;28;68147;-75
2022/11/03 06:58:36;;;;;;;;;3.75;3.50;;;;;13.24;68.69;100554.47;4976390;28;45417;-75
2022/11/03 07:01:09;;;;;;;;;5.00;3.00;;;;;13.25;69.04;100553.53;4960043;28;45532;-75
2022/11/03 07:03:36;;;;;;;;;6.50;2.00;;;;;13.25;68.82;100548.31;4959971;28;46407;-75
2022/11/03 07:06:20;;;;;;;;;5.75;3.00;;;;;13.22;68.42;100522.28;4977323;28;45411;-76
2022/11/03 07:08:47;;;;;;;;;5.25;3.75;;;;;13.22;68.97;100529.28;4977094;28;45345;-75
2022/11/03 07:11:12;;;;;;;;;4.00;3.00;;;;;13.22;69.11;100518.84;4959971;28;45517;-75
2022/11/03 07:13:38;;;;;;;;;2.00;2.00;;;;;13.25;69.08;100524.78;4977067;28;46230;-76
2022/11/03 07:16:03;;;;;;;;;5.00;3.25;;;;;13.27;68.91;100527.34;4958813;28;71119;-75
2022/11/03 07:18:39;;;;;;;;;3.75;2.75;;;;;13.24;68.60;100494.34;4977251;28;45332;-76
2022/11/03 07:21:20;;;;;;;;;6.25;4.00;;;;;13.27;68.57;100517.72;4976794;28;45424;-76
2022/11/03 07:23:46;;;;;;;;;3.50;3.00;;;;;13.30;68.51;100508.91;4975810;28;45324;-76
2022/11/03 07:26:11;;;;;;;;;6.25;4.00;;;;;13.29;68.99;100499.34;4976176;28;64938;-76
2022/11/03 07:28:37;;;;;;;;;3.00;3.00;;;;;13.29;68.29;100491.50;4959100;28;62832;-76
2022/11/03 07:31:13;;;;;;;;;1.25;1.25;;;;;13.27;68.46;100488.13;4976075;28;66991;-76
2022/11/03 07:33:38;;;;;;;;;5.50;2.00;;;;;13.26;68.64;100489.03;4976958;28;45357;-75
2022/11/03 07:36:05;;;;;;;;;5.00;3.50;;;;;13.27;68.62;100485.50;4976414;28;45368;-76
2022/11/03 07:38:32;;;;;;;;;3.25;2.00;;;;;13.30;68.18;100495.84;4975669;28;45353;-76
2022/11/03 07:40:58;;;;;;;;;5.25;3.00;;;;;13.32;68.26;100480.97;4976078;28;65816;-76
2022/11/03 07:43:27;;;;;;;;;4.75;2.25;;;;;13.36;68.29;100485.13;4976685;28;46353;-76
2022/11/03 07:45:55;;;;;;;;;3.00;3.00;;;;;13.40;68.27;100483.25;4976995;28;45666;-76
2022/11/03 07:48:40;;;;;;;;;3.25;2.25;;;;;13.40;67.72;100476.22;4975816;28;45466;-76
2022/11/03 07:51:15;;;;;;;;;2.00;2.00;;;;;13.43;67.77;100472.63;4972424;28;45815;-76
2022/11/03 07:53:44;;;;;;;;;2.00;2.00;;;;;13.47;67.43;100466.34;4976633;28;46335;-75
2022/11/03 07:56:23;;;;;;;;;8.00;3.25;;;;;13.46;67.32;100470.72;4975788;28;45378;-76
2022/11/03 07:58:51;;;;;;;;;4.00;4.00;;;;;13.49;67.34;100474.97;4976751;28;45301;-75
2022/11/03 08:01:25;;;;;;;;;2.50;2.00;;;;;13.54;67.09;100470.41;4976654;28;45389;-76
2022/11/03 08:03:50;;;;;;;;;6.25;2.00;;;;;13.58;67.05;100465.84;4976570;28;45467;-76
2022/11/03 08:06:16;;;;;;;;;2.25;2.25;;;;;13.61;67.50;100465.72;4976238;28;45320;-76
2022/11/03 08:08:41;;;;;;;;;3.25;2.25;;;;;13.66;67.22;100466.34;4975857;28;62685;-76
2022/11/03 08:11:07;;;;;;;;;2.50;2.50;;;;;13.67;66.91;100453.22;4975543;28;70570;-75
2022/11/03 08:13:32;;;;;;;;;1.00;1.00;;;;;13.75;66.57;100463.31;4975142;28;46162;-76
2022/11/03 08:15:58;;;;;;;;;8.00;2.50;;;;;13.81;66.42;100457.78;4976279;28;45309;-76
2022/11/03 08:18:23;;;;;;;;;4.75;2.50;;;;;13.87;66.16;100454.03;4976410;28;45420;-75
2022/11/03 08:20:49;;;;;;;;;3.25;3.00;;;;;13.91;65.95;100456.47;4975235;28;66456;-76
2022/11/03 08:23:15;;;;;;;;;5.75;2.50;;;;;13.97;65.74;100438.75;4958756;28;45419;-76
2022/11/03 08:25:41;;;;;;;;;3.75;2.00;;;;;14.02;65.83;100429.78;4976270;28;45330;-76
2022/11/03 08:28:06;;;;;;;;;4.00;3.00;;;;;14.05;65.33;100434.00;4976378;28;45357;-76
2022/11/03 08:30:32;;;;;;;;;2.00;2.00;;;;;14.11;65.47;100428.47;4975265;28;68527;-75
2022/11/03 08:32:58;;;;;;;;;5.00;2.00;;;;;14.14;65.53;100426.56;4976105;28;45490;-76
2022/11/03 08:35:24;;;;;;;;;3.00;1.50;;;;;14.16;64.48;100420.41;4974348;28;45381;-75
2022/11/03 08:37:49;;;;;;;;;3.00;3.00;;;;;14.12;64.96;100431.00;4976148;28;45360;-76
2022/11/03 08:40:14;;;;;;;;;4.75;2.50;;;;;14.10;64.60;100418.94;4975791;28;54383;-76
2022/11/03 08:42:39;;;;;;;;;3.50;2.00;;;;;14.17;64.91;100422.09;4975234;28;71102;-75
2022/11/03 08:45:05;;;;;;;;;3.25;2.75;;;;;14.14;65.04;100418.69;4975032;28;73231;-75
2022/11/03 08:47:31;;;;;;;;;3.25;2.00;;;;;14.14;64.66;100417.84;4974971;28;45411;-76
2022/11/03 08:49:56;;;;;;;;;3.00;3.00;;;;;14.13;64.61;100401.31;4974921;28;67698;-76
2022/11/03 08:52:21;;;;;;;;;4.00;2.50;;;;;14.19;64.71;100380.97;4975140;28;68764;-75
2022/11/03 08:54:47;;;;;;;;;4.75;3.75;;;;;14.19;64.32;100363.53;4975984;28;45321;-75
2022/11/03 08:57:12;;;;;;;;;4.00;3.50;;;;;14.19;64.48;100358.28;4974816;28;70239;-76
2022/11/03 08:59:37;;;;;;;;;3.00;3.00;;;;;14.25;64.06;100359.75;4975097;28;64560;-76
2022/11/03 09:02:03;;;;;;;;;5.00;3.00;;;;;14.25;64.22;100347.50;4974942;28;70148;-76
2022/11/03 09:04:28;;;;;;;;;4.50;3.00;;;;;14.27;64.44;100355.28;4975500;28;45270;-76
2022/11/03 09:06:54;;;;;;;;;5.75;3.00;;;;;14.29;64.69;100345.56;4976840;28;64959;-76
2022/11/03 09:09:20;;;;;;;;;7.25;4.00;;;;;14.30;64.26;100340.25;4978431;28;65307;-75
2022/11/03 09:11:46;;;;;;;;;4.75;3.25;;;;;14.25;63.88;100349.28;4979097;28;47087;-75
2022/11/03 09:14:11;;;;;;;;;4.50;3.00;;;;;14.24;64.02;100331.84;4978966;28;45403;-76
2022/11/03 09:16:36;;;;;;;;;8.00;3.00;;;;;14.24;63.99;100344.94;4979330;28;45392;-76
2022/11/03 09:19:02;;;;;;;;;4.00;3.00;;;;;14.24;63.78;100345.78;4977631;28;69095;-76
2022/11/03 09:21:27;;;;;;;;;10.50;3.00;;;;;14.23;63.85;100325.78;4978279;28;65353;-76
2022/11/03 09:23:52;;;;;;;;;3.50;3.00;;;;;14.22;64.18;100313.59;4978024;28;72908;-76
2022/11/03 09:26:18;;;;;;;;;3.25;3.00;;;;;14.26;64.17;100307.31;4979008;28;45418;-76
2022/11/03 09:28:43;;;;;;;;;2.00;2.00;;;;;14.27;63.61;100313.38;4978380;28;61299;-75
2022/11/03 09:31:08;;;;;;;;;5.00;3.75;;;;;14.29;63.73;100303.69;4977936;28;73915;-76
2022/11/03 09:33:33;;;;;;;;;2.00;2.00;;;;;14.36;63.70;100294.59;4977454;28;73167;-75
2022/11/03 09:36:00;;;;;;;;;5.00;3.00;;;;;14.44;63.78;100292.41;4978882;28;45418;-75
2022/11/03 09:38:26;;;;;;;;;8.75;3.00;;;;;14.53;63.93;100284.06;4978703;28;45409;-75
2022/11/03 09:40:51;;;;;;;;;4.00;3.00;;;;;14.59;63.69;100285.56;4978583;28;46068;-75
2022/11/03 09:43:17;;;;;;;;;7.00;4.75;;;;;14.65;63.14;100284.38;4976927;28;63806;-76
2022/11/03 09:45:42;;;;;;;;;4.50;3.00;;;;;14.66;62.72;100268.59;4979317;28;45308;-75
2022/11/03 09:48:11;;;;;;;;;1.00;0.50;;;;;14.72;63.20;100277.88;4977681;28;63027;-75
2022/11/03 09:50:36;;;;;;;;;4.00;4.00;;;;;14.80;63.13;100273.09;4977369;28;45473;-75
2022/11/03 09:53:02;;;;;;;;;3.00;2.25;;;;;14.84;62.66;100273.75;4978551;28;45406;-75
2022/11/03 09:55:27;;;;;;;;;4.50;3.50;;;;;14.91;62.33;100280.34;4977800;28;69321;-76
2022/11/03 09:58:00;;;;;;;;;5.25;3.00;;;;;14.99;62.02;100266.84;4964371;28;53802;-76
2022/11/03 10:00:26;;;;;;;;;2.00;2.00;;;;;15.07;61.63;100257.63;4976932;28;46732;-76
2022/11/03 10:02:53;;;;;;;;;4.75;3.50;;;;;15.24;62.17;100253.22;4960932;28;45721;-75
2022/11/03 10:05:23;;;;;;;;;4.00;3.00;;;;;15.44;61.45;100252.94;4977284;28;45451;-75
2022/11/03 10:07:48;;;;;;;;;3.50;2.25;;;;;15.62;61.25;100240.56;4977368;28;45385;-75
2022/11/03 10:10:16;;;;;;;;;3.00;3.00;;;;;15.66;60.41;100244.69;4977798;28;56057;-76
2022/11/03 10:12:41;;;;;;;;;4.00;2.25;;;;;15.71;59.97;100247.03;4977089;28;45329;-76
2022/11/03 10:15:13;;;;;;;;;3.00;3.00;;;;;15.76;59.67;100242.41;4977062;28;68848;-76
2022/11/03 10:17:38;;;;;;;;;4.00;2.50;;;;;15.80;59.87;100233.41;4976379;28;45402;-75
2022/11/03 10:20:12;;;;;;;;;3.00;1.50;;;;;15.85;59.92;100231.38;4959578;28;75292;-76
2022/11/03 10:22:39;;;;;;;;;4.25;4.25;;;;;15.92;59.17;100218.72;4960617;28;45715;-76
2022/11/03 10:25:32;;;;;;;;;3.75;2.00;;;;;16.05;59.20;100214.44;4977064;28;45400;-76
2022/11/03 10:28:23;;;;;;;;;2.00;2.00;;;;;16.21;58.97;100222.25;4978208;28;45350;-76
2022/11/03 10:30:59;;;;;;;;;2.75;2.75;;;;;16.36;58.64;100212.59;4976361;28;45662;-76
2022/11/03 10:33:33;;;;;;;;;2.75;2.00;;;;;16.43;58.41;100213.88;4978163;28;45364;-76
2022/11/03 10:36:04;;;;;;;;;8.75;2.50;;;;;16.49;58.10;100224.94;4977824;28;45593;-75
2022/11/03 10:38:33;;;;;;;;;4.25;2.25;;;;;16.51;57.06;100217.81;4977865;28;45269;-76
2022/11/03 10:41:15;;;;;;;;;2.75;2.00;;;;;16.53;57.88;100208.03;4977635;28;45919;-76
2022/11/03 10:43:43;;;;;;;;;3.75;3.00;;;;;16.59;57.76;100200.63;4978083;28;45817;-76
2022/11/03 10:46:17;;;;;;;;;4.00;3.50;;;;;16.63;56.67;100201.28;4976444;28;45384;-75
2022/11/03 10:48:42;;;;;;;;;3.00;3.00;;;;;16.56;56.87;100213.13;4977905;28;45435;-76
2022/11/03 10:51:10;;;;;;;;;4.50;1.00;;;;;16.48;56.99;100207.50;4976443;28;45959;-76
2022/11/03 10:53:36;;;;;;;;;3.75;3.50;;;;;16.40;56.93;100195.69;4977583;28;45546;-76
2022/11/03 10:56:01;;;;;;;;;3.75;3.25;;;;;16.44;57.65;100193.72;4976654;28;45696;-76
2022/11/03 10:58:26;;;;;;;;;2.25;2.00;;;;;16.48;56.72;100199.63;4977198;28;45269;-76
2022/11/03 11:00:52;;;;;;;;;3.00;1.50;;;;;16.47;57.50;100190.88;4959141;28;71223;-76
2022/11/03 11:03:17;;;;;;;;;3.50;2.00;;;;;16.39;56.71;100183.47;4976629;28;67518;-76
2022/11/03 11:05:44;;;;;;;;;2.75;1.75;;;;;16.34;56.81;100169.78;4976514;28;69368;-76
2022/11/03 11:08:10;;;;;;;;;4.50;1.75;;;;;16.33;57.32;100176.00;4976350;28;45529;-76
2022/11/03 11:10:35;;;;;;;;;3.50;1.75;;;;;16.26;56.96;100182.56;4977680;28;46151;-76
2022/11/03 11:13:22;;;;;;;;;1.25;1.25;;;;;16.19;57.23;100170.75;4959590;28;45382;-76
2022/11/03 11:16:01;;;;;;;;;3.25;2.50;;;;;16.19;57.56;100166.31;4977330;28;45375;-76
2022/11/03 11:18:26;;;;;;;;;2.00;2.00;;;;;16.20;57.50;100159.31;4959922;28;45551;-76
2022/11/03 11:20:51;;;;;;;;;2.00;2.00;;;;;16.11;57.51;100160.72;4976996;28;47110;-76
2022/11/03 11:23:26;;;;;;;;;2.00;1.00;;;;;16.01;58.68;100141.19;4977216;28;45426;-76
2022/11/03 11:26:07;;;;;;;;;3.75;2.00;;;;;15.94;59.18;100130.25;4977350;28;45459;-76
2022/11/03 11:28:32;;;;;;;;;2.00;2.00;;;;;15.89;59.71;100141.97;4976905;28;45451;-76
2022/11/03 11:30:58;;;;;;;;;1.75;1.00;;;;;15.84;60.05;100153.59;4958310;28;46340;-75
2022/11/03 11:33:25;;;;;;;;;2.00;2.00;;;;;15.74;59.88;100164.72;4959581;28;45330;-76
2022/11/03 11:35:51;;;;;;;;;1.00;0.75;;;;;15.67;60.74;100159.81;4976989;28;45249;-75
2022/11/03 11:38:54;;;;;;;;;2.33;2.33;;;;;15.65;61.37;100143.28;4976926;28;45325;-76
2022/11/03 11:41:20;;;;;;;;;4.00;3.00;;;;;15.59;62.69;100150.69;4972543;28;46344;-76
2022/11/03 11:43:45;;;;;;;;;3.75;2.00;;;;;15.51;63.37;100135.41;4975369;28;45378;-76
2022/11/03 11:46:38;;;;;;;;;3.50;2.75;;;;;15.41;64.12;100142.13;4975018;28;66994;-76
2022/11/03 11:49:03;;;;;;;;;3.00;3.00;;;;;15.35;64.29;100113.66;4976948;28;45436;-76